»·PEaware :: N47332B L88-KSBP

N47332B :: L88-KSBP

FLIGHT INFORMATION

Flight Status: Arrived
Operator: Privately registered:
United States
More flights under this callsign
Pilot: Doug M. (17614)
Aircraft: CESSNA 172 SKYHAWK
(C172)
More flights by this aircraft type
Origin: L88 New Cuyama
United States
Destination: KSBP San Luis Co Regl
United States
More flights between these airports :: More routes between these airports
Route:
File this flight plan on PilotEdge
Remarks:
Altitude:
(Current/Filed)
6,500ft
Speed:
(Current/Filed)
115kts
Departed: 27-Dec-17 08:16 PM
Arrived: 27-Dec-17 08:50 PM
Distance/Time
Traveled:
50nm/0:34
Distance/Time
To Go:
Arrived

Flight Plot

Page will automatically refresh every two minutes.


Map Options




Map Legend


Flown Route
Filed Route
Departure Airport
Arrival Airport
Navaid (VOR, NDB)
Fix

Horizontal Profiles

Position Reports

Time Latitude Longitude Heading Altitude Ground
Speed
27-Dec-17 20:10 34.943922 -119.690797 202 2206ft 0kts
27-Dec-17 20:11 34.943922 -119.690797 202 2206ft 0kts
27-Dec-17 20:12 34.943922 -119.690797 202 2206ft 0kts
27-Dec-17 20:13 34.943922 -119.690797 202 2206ft 0kts
27-Dec-17 20:14 34.943922 -119.690797 202 2206ft 0kts
27-Dec-17 20:15 34.943922 -119.690798 202 2206ft 0kts
27-Dec-17 20:16 34.943922 -119.690798 202 2206ft 0kts
27-Dec-17 20:17 34.943922 -119.690798 202 2206ft 0kts
27-Dec-17 20:18 34.943922 -119.690798 202 2206ft 0kts
27-Dec-17 20:19 34.943155 -119.690946 206 2206ft 0kts
27-Dec-17 20:20 34.942986 -119.691039 205 2206ft 0kts
27-Dec-17 20:21 34.942986 -119.691039 205 2206ft 0kts
27-Dec-17 20:22 34.940740 -119.687372 117 2206ft 60kts
27-Dec-17 20:23 34.931548 -119.663923 119 3083ft 73kts
27-Dec-17 20:24 34.922381 -119.672834 273 3949ft 72kts
27-Dec-17 20:25 34.930980 -119.697271 294 4712ft 83kts
27-Dec-17 20:26 34.941207 -119.721351 310 5499ft 83kts
27-Dec-17 20:27 34.952685 -119.743645 298 6234ft 84kts
27-Dec-17 20:28 34.964185 -119.767447 294 6672ft 107kts
27-Dec-17 20:29 34.975208 -119.800993 294 6648ft 127kts
27-Dec-17 20:30 34.987037 -119.836888 294 6652ft 128kts
27-Dec-17 20:31 34.999077 -119.873405 294 6651ft 126kts
27-Dec-17 20:32 35.010671 -119.908672 294 6652ft 124kts
27-Dec-17 20:33 35.022397 -119.944324 294 6652ft 124kts
27-Dec-17 20:34 35.034215 -119.980207 294 6652ft 124kts
27-Dec-17 20:35 35.046250 -120.016695 294 6651ft 124kts
27-Dec-17 20:36 35.064943 -120.045158 322 6650ft 121kts
27-Dec-17 20:37 35.089804 -120.069580 322 6647ft 122kts
27-Dec-17 20:38 35.114812 -120.094158 322 6644ft 119kts
27-Dec-17 20:39 35.140073 -120.119013 322 6499ft 119kts
27-Dec-17 20:40 35.162002 -120.145033 284 6501ft 115kts
27-Dec-17 20:41 35.167811 -120.182636 283 6500ft 115kts
27-Dec-17 20:42 35.172310 -120.220111 267 6500ft 116kts
27-Dec-17 20:43 35.169172 -120.257736 267 6500ft 116kts
27-Dec-17 20:44 35.166018 -120.295175 267 6501ft 117kts
27-Dec-17 20:45 35.168235 -120.328258 278 6502ft 114kts
27-Dec-17 20:46 35.171366 -120.365805 278 6504ft 118kts
27-Dec-17 20:47 35.174916 -120.405050 278 6487ft 119kts
27-Dec-17 20:48 35.179212 -120.443711 280 6487ft 118kts
27-Dec-17 20:49 35.184552 -120.481734 280 6488ft 117kts
27-Dec-17 20:50 35.189634 -120.514838 282 6306ft 92kts
27-Dec-17 20:51 35.196449 -120.548452 292 4745ft 116kts
27-Dec-17 20:52 35.205849 -120.571725 289 3873ft 75kts
27-Dec-17 20:53 35.213597 -120.596289 290 2184ft 83kts
27-Dec-17 20:54 35.223647 -120.617160 299 873ft 76kts
27-Dec-17 20:55 35.232796 -120.632989 299 249ft 53kts
27-Dec-17 20:56 35.237451 -120.639934 9 214ft 10kts
27-Dec-17 20:57 35.238204 -120.640513 38 214ft 7kts
27-Dec-17 20:58 35.238616 -120.639616 92 214ft 0kts
27-Dec-17 20:59 35.238616 -120.639616 92 214ft 0kts
27-Dec-17 21:00 35.238616 -120.639616 92 214ft 0kts
27-Dec-17 21:01 35.238616 -120.639616 92 214ft 0kts

Navigation Log

Ident Type
1. L88 Airport
2. KSBP Airport